KNKX/NKX METAR and TAF weather

Enter ICAO airport designator
Station Type Date Time Source
KNKX METAR 2019/04/19 08:29 UTC NOAA

KNKX 190829Z 28005KT 6SM HZ BKN004 17/13 A3003 RMK AO2 CIG 002V006 T01670133


Station Type Date Time Source
KNKX Decoded METAR 2019/04/19 08:29 UTC NOAA

MCAS MIRAMAR, CA, United States (KNKX) 32-52N 117-09W 146M
Apr 19, 2019 - 04:29 AM EDT / 2019.04.19 0829 UTC
Wind: from the W (280 degrees) at 6 MPH (5 KT):0
Visibility: 6 mile(s):0
Sky conditions: mostly cloudy
Weather: haze
Temperature: 62.1 F (16.7 C)
Dew Point: 55.9 F (13.3 C)
Relative Humidity: 80%
Pressure (altimeter): 30.03 in. Hg (1016 hPa)
ob: KNKX 190829Z 28005KT 6SM HZ BKN004 17/13 A3003 RMK AO2 CIG 002V006 T01670133
cycle: 8

Station Type Date Time Source
KNKX TAF 2019/04/19 03:06 UTC NOAA

TAF KNKX 1903/2003 VRB05KT 9999 FEW020 FEW250 QNH2993INS
TEMPO 1909/1915 3200 BR BKN005
BECMG 1918/1920 29008KT 9999 SCT030 SCT250 QNH2986INS T13/1913Z T26/1921Z

Example: see airport list